^^
Your Local Weather - Clay, NY Station Historical Data
Daily Summary for December 13, 2017 Units:  English    Metric   Both
« Previous Day
Next Day »
Daily Weekly Monthly Yearly Custom
  High: Low: Average:
Temperature: 19.2 °F 13.2 °F 15.7 °F
Dew Point: 16.7 °F 6.2 °F 12.5 °F
Humidity: 90% 70% 87%
Wind Speed: 6.0mph 0.0mph 3mph
Wind Gust: 14.0mph - -
Wind- - West
Pressure: 29.62 in 29.45 in -
Precipitation: 0.00 in    
Historical Graphs
 
 
Tabular Data for December 13, 2017
Time Temperature Dew Point Pressure Wind Wind Speed Wind Gust Humidity Rainfall Rate (Hourly) solar
00:04 14.3 °F 6.3 °F 29.47 in SW 6.0 mph 7.0 mph 70% 0.00 in 0 W/m2
00:10 14.2 °F 6.2 °F 29.47 in SW 4.0 mph 8.0 mph 70% 0.00 in 0 W/m2
00:16 14.2 °F 6.5 °F 29.46 in WSW 5.0 mph 8.0 mph 71% 0.00 in 0 W/m2
00:22 14.1 °F 6.4 °F 29.46 in WNW 4.0 mph 5.0 mph 71% 0.00 in 0 W/m2
00:28 14.1 °F 6.7 °F 29.46 in West 4.0 mph 7.0 mph 72% 0.00 in 0 W/m2
00:34 14.1 °F 6.7 °F 29.46 in SW 4.0 mph 5.0 mph 72% 0.00 in 0 W/m2
00:40 14.1 °F 6.7 °F 29.46 in West 5.0 mph 5.0 mph 72% 0.00 in 0 W/m2
00:46 14.1 °F 6.7 °F 29.45 in SW 5.0 mph 6.0 mph 72% 0.00 in 0 W/m2
00:52 14.0 °F 6.6 °F 29.45 in SW 4.0 mph 5.0 mph 72% 0.00 in 0 W/m2
00:58 14.1 °F 7.0 °F 29.45 in WSW 4.0 mph 5.0 mph 73% 0.00 in 0 W/m2
01:04 14.1 °F 7.0 °F 29.46 in WNW 4.0 mph 5.0 mph 73% 0.00 in 0 W/m2
01:10 14.2 °F 7.1 °F 29.46 in WNW 5.0 mph 5.0 mph 73% 0.00 in 0 W/m2
01:16 14.3 °F 7.2 °F 29.46 in WSW 4.0 mph 7.0 mph 73% 0.00 in 0 W/m2
01:22 14.4 °F 7.6 °F 29.46 in WSW 4.0 mph 9.0 mph 74% 0.00 in 0 W/m2
01:34 14.6 °F 8.7 °F 29.45 in WNW 5.0 mph 8.0 mph 77% 0.00 in 0 W/m2
01:40 14.4 °F 9.1 °F 29.46 in WSW 5.0 mph 5.0 mph 79% 0.00 in 0 W/m2
01:46 14.3 °F 9.5 °F 29.46 in West 5.0 mph 9.0 mph 81% 0.00 in 0 W/m2
01:52 14.4 °F 10.2 °F 29.47 in West 5.0 mph 8.0 mph 83% 0.00 in 0 W/m2
01:58 14.5 °F 10.5 °F 29.47 in SSW 4.0 mph 8.0 mph 84% 0.00 in 0 W/m2
02:04 14.4 °F 10.4 °F 29.47 in West 5.0 mph 5.0 mph 84% 0.00 in 0 W/m2
02:10 14.4 °F 10.7 °F 29.47 in WSW 5.0 mph 5.0 mph 85% 0.00 in 0 W/m2
02:16 14.3 °F 10.6 °F 29.47 in West 5.0 mph 5.0 mph 85% 0.00 in 0 W/m2
02:22 14.3 °F 10.9 °F 29.47 in WSW 4.0 mph 7.0 mph 86% 0.00 in 0 W/m2
02:28 14.3 °F 10.9 °F 29.47 in WNW 5.0 mph 7.0 mph 86% 0.00 in 0 W/m2
02:34 14.3 °F 11.1 °F 29.47 in West 5.0 mph 9.0 mph 87% 0.00 in 0 W/m2
02:40 14.3 °F 11.1 °F 29.47 in West 4.0 mph 4.0 mph 87% 0.00 in 0 W/m2
02:46 14.3 °F 11.1 °F 29.47 in West 5.0 mph 7.0 mph 87% 0.00 in 0 W/m2
02:52 14.3 °F 11.1 °F 29.47 in SSW 5.0 mph 5.0 mph 87% 0.00 in 0 W/m2
02:58 14.3 °F 11.1 °F 29.47 in SW 6.0 mph 10.0 mph 87% 0.00 in 0 W/m2
03:04 14.3 °F 11.4 °F 29.47 in SW 5.0 mph 5.0 mph 88% 0.00 in 0 W/m2
03:16 14.3 °F 11.4 °F 29.47 in West 5.0 mph 7.0 mph 88% 0.00 in 0 W/m2
03:22 14.3 °F 11.4 °F 29.48 in West 4.0 mph 5.0 mph 88% 0.00 in 0 W/m2
03:28 14.3 °F 11.4 °F 29.48 in SW 4.0 mph 5.0 mph 88% 0.00 in 0 W/m2
03:34 14.3 °F 11.4 °F 29.48 in WSW 4.0 mph 5.0 mph 88% 0.00 in 0 W/m2
03:40 14.3 °F 11.4 °F 29.48 in WNW 3.0 mph 5.0 mph 88% 0.00 in 0 W/m2
03:46 14.4 °F 11.5 °F 29.48 in WSW 3.0 mph 5.0 mph 88% 0.00 in 0 W/m2
03:52 14.4 °F 11.5 °F 29.48 in WSW 4.0 mph 4.0 mph 88% 0.00 in 0 W/m2
03:58 14.5 °F 11.6 °F 29.48 in WSW 4.0 mph 6.0 mph 88% 0.00 in 0 W/m2
04:04 14.5 °F 11.6 °F 29.48 in WSW 5.0 mph 11.0 mph 88% 0.00 in 0 W/m2
04:10 14.5 °F 11.6 °F 29.48 in West 4.0 mph 4.0 mph 88% 0.00 in 0 W/m2
04:16 14.5 °F 11.6 °F 29.48 in West 4.0 mph 6.0 mph 88% 0.00 in 0 W/m2
04:22 14.6 °F 11.7 °F 29.48 in WSW 4.0 mph 4.0 mph 88% 0.00 in 0 W/m2
04:28 14.6 °F 11.7 °F 29.48 in West 4.0 mph 5.0 mph 88% 0.00 in 0 W/m2
04:34 14.5 °F 11.6 °F 29.48 in WSW 4.0 mph 7.0 mph 88% 0.00 in 0 W/m2
04:40 14.6 °F 11.7 °F 29.48 in WSW 4.0 mph 4.0 mph 88% 0.00 in 0 W/m2
04:52 14.6 °F 11.7 °F 29.48 in WSW 3.0 mph 3.0 mph 88% 0.00 in 0 W/m2
04:58 14.7 °F 12.0 °F 29.48 in West 3.0 mph 5.0 mph 89% 0.00 in 0 W/m2
05:04 14.7 °F 12.0 °F 29.48 in West 2.0 mph 5.0 mph 89% 0.00 in 0 W/m2
05:10 14.7 °F 12.0 °F 29.48 in West 2.0 mph 5.0 mph 89% 0.00 in 0 W/m2
05:16 14.8 °F 11.9 °F 29.49 in WSW 3.0 mph 5.0 mph 88% 0.00 in 0 W/m2
05:22 14.8 °F 12.1 °F 29.49 in West 3.0 mph 4.0 mph 89% 0.00 in 0 W/m2
05:28 14.8 °F 12.1 °F 29.49 in WSW 3.0 mph 4.0 mph 89% 0.00 in 0 W/m2
05:34 14.9 °F 12.2 °F 29.49 in West 2.0 mph 3.0 mph 89% 0.00 in 0 W/m2
05:40 14.9 °F 12.2 °F 29.49 in West 2.0 mph 2.0 mph 89% 0.00 in 0 W/m2
05:46 15.0 °F 12.3 °F 29.49 in West 2.0 mph 2.0 mph 89% 0.00 in 0 W/m2
05:52 15.0 °F 12.3 °F 29.49 in WNW 2.0 mph 2.0 mph 89% 0.00 in 0 W/m2
05:58 15.1 °F 12.4 °F 29.49 in WSW 2.0 mph 3.0 mph 89% 0.00 in 0 W/m2
06:04 15.2 °F 12.5 °F 29.49 in WNW 3.0 mph 3.0 mph 89% 0.00 in 0 W/m2
06:10 15.2 °F 12.5 °F 29.50 in NW 2.0 mph 5.0 mph 89% 0.00 in 0 W/m2
06:16 15.0 °F 12.3 °F 29.50 in NNW 3.0 mph 5.0 mph 89% 0.00 in 0 W/m2
06:22 14.7 °F 11.8 °F 29.50 in NW 3.0 mph 3.0 mph 88% 0.00 in 0 W/m2
06:28 14.5 °F 11.6 °F 29.50 in NW 2.0 mph 4.0 mph 88% 0.00 in 0 W/m2
06:34 14.3 °F 11.7 °F 29.50 in WNW 2.0 mph 3.0 mph 89% 0.00 in 0 W/m2
06:40 14.1 °F 11.5 °F 29.50 in WNW 3.0 mph 4.0 mph 89% 0.00 in 0 W/m2
06:46 13.8 °F 10.9 °F 29.50 in NNW 3.0 mph 7.0 mph 88% 0.00 in 0 W/m2
06:52 13.5 °F 10.6 °F 29.50 in NW 4.0 mph 4.0 mph 88% 0.00 in 0 W/m2
07:04 13.3 °F 10.4 °F 29.50 in WNW 2.0 mph 3.0 mph 88% 0.00 in 0 W/m2
07:10 13.2 °F 10.3 °F 29.50 in WNW 2.0 mph 2.0 mph 88% 0.00 in 0 W/m2
07:16 13.3 °F 10.4 °F 29.51 in WNW 3.0 mph 5.0 mph 88% 0.00 in 0 W/m2
07:22 13.2 °F 10.3 °F 29.51 in WNW 3.0 mph 3.0 mph 88% 0.00 in 0 W/m2
07:28 13.2 °F 10.3 °F 29.51 in WNW 3.0 mph 7.0 mph 88% 0.00 in 0 W/m2
07:34 13.2 °F 10.3 °F 29.51 in NW 3.0 mph 4.0 mph 88% 0.00 in 0 W/m2
07:40 13.2 °F 10.3 °F 29.51 in WNW 2.0 mph 2.0 mph 88% 0.00 in 0 W/m2
07:46 13.2 °F 10.3 °F 29.51 in WNW 2.0 mph 3.0 mph 88% 0.00 in 0 W/m2
07:52 13.3 °F 10.4 °F 29.52 in WNW 1.0 mph 1.0 mph 88% 0.00 in 0 W/m2
07:58 13.4 °F 10.5 °F 29.51 in WNW 1.0 mph 1.0 mph 88% 0.00 in 0 W/m2
08:04 13.4 °F 10.8 °F 29.52 in WNW 1.0 mph 1.0 mph 89% 0.00 in 0 W/m2
08:10 13.6 °F 11.0 °F 29.52 in Calm     89% 0.00 in 5 W/m2
08:16 13.7 °F 11.1 °F 29.52 in Calm   1.0 mph 89% 0.00 in 7 W/m2
08:22 13.8 °F 11.2 °F 29.52 in Calm     89% 0.00 in 7 W/m2
08:30 14.0 °F 11.4 °F 29.52 in Calm     89% 0.00 in 9 W/m2
08:36 14.2 °F 11.6 °F 29.52 in WNW 1.0 mph 3.0 mph 89% 0.00 in 11 W/m2
08:42 14.6 °F 11.9 °F 29.52 in WNW 1.0 mph 2.0 mph 89% 0.00 in 11 W/m2
08:48 14.9 °F 12.2 °F 29.52 in WNW 2.0 mph 2.0 mph 89% 0.00 in 12 W/m2
09:00 15.5 °F 12.8 °F 29.53 in NW 3.0 mph 3.0 mph 89% 0.00 in 14 W/m2
09:06 15.6 °F 12.9 °F 29.53 in WNW 3.0 mph 4.0 mph 89% 0.00 in 14 W/m2
09:12 15.7 °F 13.0 °F 29.54 in WNW 2.0 mph 7.0 mph 89% 0.00 in 16 W/m2
09:18 15.6 °F 12.9 °F 29.54 in WNW 3.0 mph 7.0 mph 89% 0.00 in 19 W/m2
09:24 15.7 °F 13.0 °F 29.54 in NW 3.0 mph 5.0 mph 89% 0.00 in 18 W/m2
09:30 15.6 °F 12.9 °F 29.54 in WNW 4.0 mph 4.0 mph 89% 0.00 in 25 W/m2
09:36 15.6 °F 12.9 °F 29.54 in WNW 4.0 mph 5.0 mph 89% 0.00 in 26 W/m2
09:42 15.7 °F 13.0 °F 29.55 in WNW 4.0 mph 4.0 mph 89% 0.00 in 26 W/m2
09:48 15.8 °F 13.1 °F 29.55 in WNW 4.0 mph 5.0 mph 89% 0.00 in 28 W/m2
09:54 15.9 °F 13.2 °F 29.55 in NW 3.0 mph 4.0 mph 89% 0.00 in 30 W/m2
10:00 15.9 °F 13.2 °F 29.55 in WNW 3.0 mph 3.0 mph 89% 0.00 in 32 W/m2
10:06 15.9 °F 13.2 °F 29.55 in WNW 4.0 mph 4.0 mph 89% 0.00 in 35 W/m2
10:12 15.9 °F 13.2 °F 29.56 in NW 4.0 mph 4.0 mph 89% 0.00 in 33 W/m2
10:24 16.0 °F 13.3 °F 29.56 in WNW 5.0 mph 5.0 mph 89% 0.00 in 37 W/m2
10:30 16.0 °F 13.3 °F 29.56 in WNW 4.0 mph 4.0 mph 89% 0.00 in 28 W/m2
10:36 16.2 °F 13.5 °F 29.57 in WNW 3.0 mph 4.0 mph 89% 0.00 in 30 W/m2
10:42 16.3 °F 13.6 °F 29.57 in WNW 3.0 mph 4.0 mph 89% 0.00 in 33 W/m2
10:48 16.4 °F 13.7 °F 29.57 in WNW 3.0 mph 5.0 mph 89% 0.00 in 32 W/m2
10:54 16.6 °F 13.9 °F 29.57 in West 2.0 mph 3.0 mph 89% 0.00 in 37 W/m2
11:00 16.9 °F 14.2 °F 29.57 in NW 2.0 mph 4.0 mph 89% 0.00 in 51 W/m2
11:12 17.4 °F 14.7 °F 29.57 in NW 4.0 mph 4.0 mph 89% 0.00 in 46 W/m2
11:24 17.7 °F 15.3 °F 29.57 in West 4.0 mph 6.0 mph 90% 0.00 in 47 W/m2
11:30 17.6 °F 14.9 °F 29.57 in West 6.0 mph 6.0 mph 89% 0.00 in 47 W/m2
11:36 17.7 °F 15.0 °F 29.57 in West 6.0 mph 8.0 mph 89% 0.00 in 56 W/m2
11:42 17.8 °F 15.1 °F 29.57 in West 5.0 mph 7.0 mph 89% 0.00 in 49 W/m2
11:48 17.7 °F 15.0 °F 29.57 in NW 6.0 mph 14.0 mph 89% 0.00 in 37 W/m2
11:54 17.7 °F 15.0 °F 29.57 in West 5.0 mph 9.0 mph 89% 0.00 in 42 W/m2
12:00 17.8 °F 15.1 °F 29.57 in WNW 4.0 mph 4.0 mph 89% 0.00 in 49 W/m2
12:06 18.0 °F 15.3 °F 29.57 in WNW 4.0 mph 8.0 mph 89% 0.00 in 54 W/m2
12:12 18.2 °F 15.8 °F 29.57 in WNW 4.0 mph 4.0 mph 90% 0.00 in 39 W/m2
12:18 18.3 °F 15.9 °F 29.57 in West 4.0 mph 6.0 mph 90% 0.00 in 32 W/m2
12:24 18.1 °F 15.4 °F 29.57 in WNW 5.0 mph 7.0 mph 89% 0.00 in 39 W/m2
12:30 18.2 °F 15.5 °F 29.57 in WNW 5.0 mph 6.0 mph 89% 0.00 in 32 W/m2
12:36 18.2 °F 15.5 °F 29.57 in WNW 5.0 mph 6.0 mph 89% 0.00 in 25 W/m2
12:42 18.1 °F 15.4 °F 29.57 in NW 5.0 mph 7.0 mph 89% 0.00 in 26 W/m2
12:48 18.1 °F 15.4 °F 29.57 in WNW 6.0 mph 8.0 mph 89% 0.00 in 40 W/m2
12:54 18.2 °F 15.5 °F 29.57 in WNW 6.0 mph 7.0 mph 89% 0.00 in 44 W/m2
13:00 18.3 °F 15.6 °F 29.57 in WNW 5.0 mph 5.0 mph 89% 0.00 in 37 W/m2
13:06 18.7 °F 16.0 °F 29.57 in WNW 4.0 mph 7.0 mph 89% 0.00 in 42 W/m2
13:12 18.8 °F 16.1 °F 29.57 in WNW 4.0 mph 4.0 mph 89% 0.00 in 37 W/m2
13:18 18.9 °F 16.5 °F 29.58 in West 4.0 mph 5.0 mph 90% 0.00 in 32 W/m2
13:24 19.0 °F 16.6 °F 29.58 in WSW 4.0 mph 6.0 mph 90% 0.00 in 47 W/m2
13:36 19.1 °F 16.7 °F 29.58 in WNW 4.0 mph 4.0 mph 90% 0.00 in 32 W/m2
13:42 19.2 °F 16.7 °F 29.58 in WSW 3.0 mph 5.0 mph 90% 0.00 in 25 W/m2
13:48 18.9 °F 16.5 °F 29.58 in WSW 3.0 mph 6.0 mph 90% 0.00 in 19 W/m2
13:54 18.6 °F 16.2 °F 29.58 in West 4.0 mph 6.0 mph 90% 0.00 in 25 W/m2
14:00 18.6 °F 15.9 °F 29.58 in West 3.0 mph 3.0 mph 89% 0.00 in 21 W/m2
14:06 18.5 °F 16.1 °F 29.58 in West 3.0 mph 9.0 mph 90% 0.00 in 21 W/m2
14:12 18.6 °F 16.2 °F 29.58 in WSW 3.0 mph 4.0 mph 90% 0.00 in 21 W/m2
14:18 18.6 °F 16.2 °F 29.59 in WSW 3.0 mph 5.0 mph 90% 0.00 in 19 W/m2
14:24 18.6 °F 16.2 °F 29.59 in West 4.0 mph 9.0 mph 90% 0.00 in 21 W/m2
14:30 18.6 °F 16.2 °F 29.59 in West 4.0 mph 4.0 mph 90% 0.00 in 16 W/m2
14:36 18.4 °F 16.0 °F 29.59 in West 4.0 mph 8.0 mph 90% 0.00 in 14 W/m2
14:42 18.1 °F 15.7 °F 29.60 in SSW 4.0 mph 4.0 mph 90% 0.00 in 16 W/m2
14:48 17.9 °F 15.5 °F 29.60 in WSW 3.0 mph 4.0 mph 90% 0.00 in 16 W/m2
14:54 17.8 °F 15.4 °F 29.60 in WSW 3.0 mph 9.0 mph 90% 0.00 in 12 W/m2
15:00 17.7 °F 15.3 °F 29.60 in SW 4.0 mph 5.0 mph 90% 0.00 in 12 W/m2
15:06 17.5 °F 15.1 °F 29.59 in NW 4.0 mph 7.0 mph 90% 0.00 in 16 W/m2
15:12 17.4 °F 14.7 °F 29.59 in WSW 4.0 mph 9.0 mph 89% 0.00 in 19 W/m2
15:18 17.3 °F 14.6 °F 29.60 in West 4.0 mph 9.0 mph 89% 0.00 in 16 W/m2
15:24 17.2 °F 14.8 °F 29.59 in WSW 4.0 mph 9.0 mph 90% 0.00 in 12 W/m2
15:30 17.1 °F 14.4 °F 29.60 in West 4.0 mph 4.0 mph 89% 0.00 in 7 W/m2
15:36 17.1 °F 14.4 °F 29.60 in West 4.0 mph 4.0 mph 89% 0.00 in 9 W/m2
15:42 17.0 °F 14.3 °F 29.60 in West 4.0 mph 4.0 mph 89% 0.00 in 5 W/m2
15:48 16.8 °F 14.1 °F 29.60 in WSW 5.0 mph 6.0 mph 89% 0.00 in 5 W/m2
15:54 16.8 °F 14.1 °F 29.60 in WSW 5.0 mph 5.0 mph 89% 0.00 in 5 W/m2
16:00 16.8 °F 14.1 °F 29.60 in West 4.0 mph 4.0 mph 89% 0.00 in 0 W/m2
16:06 16.7 °F 14.0 °F 29.60 in West 3.0 mph 4.0 mph 89% 0.00 in 0 W/m2
16:14 16.6 °F 13.9 °F 29.60 in WSW 4.0 mph 4.0 mph 89% 0.00 in 0 W/m2
16:20 16.6 °F 13.9 °F 29.60 in West 4.0 mph 6.0 mph 89% 0.00 in 0 W/m2
16:26 16.5 °F 13.8 °F 29.60 in West 3.0 mph 6.0 mph 89% 0.00 in 0 W/m2
16:32 16.5 °F 13.8 °F 29.60 in WNW 3.0 mph 4.0 mph 89% 0.00 in 0 W/m2
16:38 16.5 °F 13.8 °F 29.60 in SW 3.0 mph 4.0 mph 89% 0.00 in 0 W/m2
16:44 16.5 °F 13.8 °F 29.60 in West 3.0 mph 9.0 mph 89% 0.00 in 0 W/m2
16:50 16.5 °F 13.8 °F 29.60 in West 4.0 mph 4.0 mph 89% 0.00 in 0 W/m2
16:56 16.5 °F 13.8 °F 29.60 in West 4.0 mph 5.0 mph 89% 0.00 in 0 W/m2
17:02 16.5 °F 13.8 °F 29.60 in WNW 3.0 mph 3.0 mph 89% 0.00 in 0 W/m2
17:08 16.5 °F 13.8 °F 29.60 in WNW 2.0 mph 4.0 mph 89% 0.00 in 0 W/m2
17:14 16.4 °F 13.7 °F 29.60 in WSW 3.0 mph 4.0 mph 89% 0.00 in 0 W/m2
17:20 16.4 °F 13.7 °F 29.61 in West 2.0 mph 3.0 mph 89% 0.00 in 0 W/m2
17:26 16.4 °F 13.7 °F 29.61 in SW 2.0 mph 7.0 mph 89% 0.00 in 0 W/m2
17:38 16.4 °F 13.7 °F 29.62 in West 2.0 mph 3.0 mph 89% 0.00 in 0 W/m2
17:44 16.4 °F 13.7 °F 29.62 in SW 2.0 mph 3.0 mph 89% 0.00 in 0 W/m2
17:50 16.4 °F 13.7 °F 29.62 in WSW 2.0 mph 2.0 mph 89% 0.00 in 0 W/m2
17:56 16.4 °F 13.7 °F 29.62 in WSW 2.0 mph 4.0 mph 89% 0.00 in 0 W/m2
18:02 16.3 °F 13.4 °F 29.62 in WSW 3.0 mph 3.0 mph 88% 0.00 in 0 W/m2
18:08 16.2 °F 13.3 °F 29.61 in WSW 3.0 mph 4.0 mph 88% 0.00 in 0 W/m2
18:14 16.1 °F 13.2 °F 29.61 in West 3.0 mph 6.0 mph 88% 0.00 in 0 W/m2
18:20 16.0 °F 13.1 °F 29.61 in West 3.0 mph 4.0 mph 88% 0.00 in 0 W/m2
18:26 15.9 °F 13.0 °F 29.61 in SW 3.0 mph 4.0 mph 88% 0.00 in 0 W/m2
18:32 15.9 °F 13.0 °F 29.61 in WSW 3.0 mph 4.0 mph 88% 0.00 in 0 W/m2
18:38 15.8 °F 12.9 °F 29.60 in WSW 4.0 mph 4.0 mph 88% 0.00 in 0 W/m2
18:44 15.7 °F 12.5 °F 29.60 in WSW 3.0 mph 6.0 mph 87% 0.00 in 0 W/m2
18:50 15.7 °F 12.5 °F 29.60 in West 2.0 mph 2.0 mph 87% 0.00 in 0 W/m2
19:02 15.6 °F 12.4 °F 29.60 in SW 3.0 mph 3.0 mph 87% 0.00 in 0 W/m2
19:08 15.6 °F 12.4 °F 29.60 in SSW 3.0 mph 5.0 mph 87% 0.00 in 0 W/m2
19:14 15.7 °F 12.5 °F 29.60 in SW 3.0 mph 3.0 mph 87% 0.00 in 0 W/m2
19:20 15.7 °F 12.5 °F 29.59 in WSW 3.0 mph 3.0 mph 87% 0.00 in 0 W/m2
19:26 15.6 °F 12.2 °F 29.59 in WSW 3.0 mph 4.0 mph 86% 0.00 in 0 W/m2
19:32 15.6 °F 12.2 °F 29.59 in SW 3.0 mph 3.0 mph 86% 0.00 in 0 W/m2
19:38 15.6 °F 12.2 °F 29.59 in WSW 2.0 mph 3.0 mph 86% 0.00 in 0 W/m2
19:44 15.6 °F 12.2 °F 29.59 in WSW 2.0 mph 4.0 mph 86% 0.00 in 0 W/m2
19:50 15.6 °F 12.2 °F 29.59 in SW 3.0 mph 3.0 mph 86% 0.00 in 0 W/m2
19:56 15.5 °F 12.1 °F 29.59 in SW 2.0 mph 3.0 mph 86% 0.00 in 0 W/m2
20:02 15.5 °F 12.1 °F 29.59 in West 1.0 mph 3.0 mph 86% 0.00 in 0 W/m2
20:08 15.4 °F 12.0 °F 29.60 in WSW 1.0 mph 3.0 mph 86% 0.00 in 0 W/m2
20:14 15.3 °F 11.9 °F 29.59 in West 2.0 mph 3.0 mph 86% 0.00 in 0 W/m2
20:20 15.2 °F 11.8 °F 29.59 in West 2.0 mph 2.0 mph 86% 0.00 in 0 W/m2
20:26 15.1 °F 11.4 °F 29.59 in SW 2.0 mph 4.0 mph 85% 0.00 in 0 W/m2
20:32 15.1 °F 11.4 °F 29.59 in WSW 2.0 mph 2.0 mph 85% 0.00 in 0 W/m2
20:38 15.2 °F 11.5 °F 29.59 in WSW 1.0 mph 2.0 mph 85% 0.00 in 0 W/m2
20:46 15.2 °F 11.5 °F 29.59 in WSW 1.0 mph 1.0 mph 85% 0.00 in 0 W/m2
20:52 15.3 °F 11.6 °F 29.59 in WSW 1.0 mph 1.0 mph 85% 0.00 in 0 W/m2
20:58 15.4 °F 11.7 °F 29.59 in WSW 1.0 mph 1.0 mph 85% 0.00 in 0 W/m2
21:04 15.4 °F 11.7 °F 29.59 in WSW 1.0 mph 2.0 mph 85% 0.00 in 0 W/m2
21:10 15.4 °F 11.7 °F 29.59 in WSW 1.0 mph 1.0 mph 85% 0.00 in 0 W/m2
21:22 15.5 °F 11.8 °F 29.59 in WSW 1.0 mph 2.0 mph 85% 0.00 in 0 W/m2
21:28 15.5 °F 11.8 °F 29.59 in WSW 1.0 mph 2.0 mph 85% 0.00 in 0 W/m2
21:34 15.5 °F 11.8 °F 29.59 in WSW 1.0 mph 3.0 mph 85% 0.00 in 0 W/m2
21:40 15.5 °F 11.8 °F 29.59 in WSW 1.0 mph 1.0 mph 85% 0.00 in 0 W/m2
21:46 15.5 °F 11.8 °F 29.58 in Calm   3.0 mph 85% 0.00 in 0 W/m2
21:52 15.6 °F 11.9 °F 29.58 in Calm     85% 0.00 in 0 W/m2
21:58 15.6 °F 11.9 °F 29.58 in Calm   3.0 mph 85% 0.00 in 0 W/m2
22:04 15.7 °F 12.0 °F 29.58 in Calm     85% 0.00 in 0 W/m2
22:10 15.7 °F 12.0 °F 29.58 in Calm     85% 0.00 in 0 W/m2
22:22 15.7 °F 12.0 °F 29.58 in Calm     85% 0.00 in 0 W/m2
22:28 15.7 °F 12.0 °F 29.59 in Calm     85% 0.00 in 0 W/m2
22:30 15.7 °F 12.0 °F 29.59 in Calm     85% 0.00 in 0 W/m2
22:36 15.7 °F 12.3 °F 29.59 in Calm     86% 0.00 in 0 W/m2
22:42 15.7 °F 12.3 °F 29.59 in Calm     86% 0.00 in 0 W/m2
22:48 15.6 °F 11.9 °F 29.59 in Calm     85% 0.00 in 0 W/m2
22:54 15.6 °F 12.2 °F 29.59 in Calm     86% 0.00 in 0 W/m2
23:00 15.6 °F 12.2 °F 29.59 in Calm     86% 0.00 in 0 W/m2
23:06 15.6 °F 12.2 °F 29.59 in Calm     86% 0.00 in 0 W/m2
23:12 15.7 °F 12.3 °F 29.59 in Calm     86% 0.00 in 0 W/m2
23:18 15.7 °F 12.3 °F 29.59 in Calm     86% 0.00 in 0 W/m2
23:24 15.7 °F 12.3 °F 29.59 in Calm     86% 0.00 in 0 W/m2
23:30 15.7 °F 12.3 °F 29.59 in Calm     86% 0.00 in 0 W/m2
23:38 15.7 °F 12.3 °F 29.59 in Calm     86% 0.00 in 0 W/m2
23:44 15.6 °F 12.2 °F 29.59 in Calm     86% 0.00 in 0 W/m2
23:50 15.6 °F 12.2 °F 29.58 in Calm     86% 0.00 in 0 W/m2
Country Meadow, Clay, NY, USA
Compliments of Weather Underground - 2 mb